首页
METAR-TAF:

METAR-TAF

机场 :

布里斯托機場

布里斯托尔, 英格兰

纬度: 51-23N, 经度: 002-43W, 海拔: 189米

当前天气观测

该预报发布于28分钟前的20:20 UTC
风速10节,风向西南
温度 7°C
湿度 81%
气压 1010 hPa
能见度10公里或以上
多云层高于3200英尺

METAR: EGGD 292020Z AUTO 23010KT 9999 BKN032 07/04 Q1010

时间: 20:48 (20:48 UTC)

预报

该预报发布于3小时和46分钟前的17:02 UTC
预报有效从29日的 18点(UTC)到 30日的 18点(UTC)
风速10节,风向西南
能见度10公里或以上
散云层高于2500英尺
成为
从 30日的 01点(UTC)到 30日的 04点(UTC)
能見度: 3000
多云层高于400英尺
轻雾
成为
从 30日的 04点(UTC)到 30日的 07点(UTC)
风速8节,风向南转南东
能見度: 0200
多云层低于100英尺
小毛毛雨, 雾
几率 30% :
短暂存在
从 30日的 11点(UTC)到 30日的 15点(UTC)
能見度: 3000
多云层高于300英尺
轻雾
短暂存在
从 30日的 15点(UTC)到 30日的 18点(UTC)
风速15节,风向西,有时为25节阵风

TAF: EGGD 291702Z 2918/3018 23010KT 9999 SCT025 BECMG 3001/3004 3000 BR BKN004 BECMG 3004/3007 15008KT 0200 -DZ FG BKN000 PROB30 TEMPO 3011/3015 3000 BR BKN003 TEMPO 3015/3018 26015G25KT

超过4000个机场的气象观测和天气预报(METAR&TAF报告)。

可查询的气象台以黄色和红色小点在地图上表示。

将鼠标移到小点上方,可查看气象台名称。

然后点击查看天气观测和预报。

如需切换地图:点击带黑十字的绿色按钮放大地图;点击带横线的绿色按钮缩小地图;或者点击绿色箭头查看邻近地区的地图。


METAR-TAF: